sensor_id;sensor_type;location;lat;lon;timestamp;pressure;altitude;pressure_sealevel;temperature
12430;BMP280;6279;42.192;24.326;2023-03-01T00:00:14;99896.63;;;7.04
12430;BMP280;6279;42.192;24.326;2023-03-01T00:02:40;99890.63;;;7.04
12430;BMP280;6279;42.192;24.326;2023-03-01T00:05:06;99889.94;;;7.02
12430;BMP280;6279;42.192;24.326;2023-03-01T00:07:32;99895.72;;;6.95
12430;BMP280;6279;42.192;24.326;2023-03-01T00:09:58;99894.56;;;6.88
12430;BMP280;6279;42.192;24.326;2023-03-01T00:12:23;99894.00;;;6.84
12430;BMP280;6279;42.192;24.326;2023-03-01T00:14:49;99895.53;;;6.87
12430;BMP280;6279;42.192;24.326;2023-03-01T00:17:14;99888.47;;;6.89
12430;BMP280;6279;42.192;24.326;2023-03-01T00:19:40;99889.16;;;6.91
12430;BMP280;6279;42.192;24.326;2023-03-01T00:22:05;99891.72;;;6.91
12430;BMP280;6279;42.192;24.326;2023-03-01T00:24:30;99891.72;;;6.91
12430;BMP280;6279;42.192;24.326;2023-03-01T00:26:56;99878.81;;;6.91
12430;BMP280;6279;42.192;24.326;2023-03-01T00:29:23;99882.84;;;6.84
12430;BMP280;6279;42.192;24.326;2023-03-01T00:31:48;99890.97;;;6.79
12430;BMP280;6279;42.192;24.326;2023-03-01T00:34:14;99881.44;;;6.80
12430;BMP280;6279;42.192;24.326;2023-03-01T00:36:39;99878.13;;;6.78
12430;BMP280;6279;42.192;24.326;2023-03-01T00:39:07;99887.09;;;6.74
12430;BMP280;6279;42.192;24.326;2023-03-01T00:41:33;99879.16;;;6.66
12430;BMP280;6279;42.192;24.326;2023-03-01T00:43:59;99874.53;;;6.70
12430;BMP280;6279;42.192;24.326;2023-03-01T00:46:26;99876.28;;;6.80
12430;BMP280;6279;42.192;24.326;2023-03-01T00:48:51;99879.31;;;6.85
12430;BMP280;6279;42.192;24.326;2023-03-01T00:51:23;99874.03;;;6.76
12430;BMP280;6279;42.192;24.326;2023-03-01T00:53:57;99861.50;;;6.71
12430;BMP280;6279;42.192;24.326;2023-03-01T00:56:23;99867.22;;;6.75
12430;BMP280;6279;42.192;24.326;2023-03-01T00:58:49;99856.88;;;6.75
12430;BMP280;6279;42.192;24.326;2023-03-01T01:01:17;99853.94;;;6.79
12430;BMP280;6279;42.192;24.326;2023-03-01T01:04:06;99858.88;;;6.82
12430;BMP280;6279;42.192;24.326;2023-03-01T01:06:37;99859.06;;;6.90
12430;BMP280;6279;42.192;24.326;2023-03-01T01:09:05;99857.69;;;6.86
12430;BMP280;6279;42.192;24.326;2023-03-01T01:11:32;99846.91;;;6.81
12430;BMP280;6279;42.192;24.326;2023-03-01T01:13:58;99852.25;;;6.89
12430;BMP280;6279;42.192;24.326;2023-03-01T01:16:26;99848.28;;;6.85
12430;BMP280;6279;42.192;24.326;2023-03-01T01:18:52;99850.44;;;6.80
12430;BMP280;6279;42.192;24.326;2023-03-01T01:21:19;99838.53;;;6.78
12430;BMP280;6279;42.192;24.326;2023-03-01T01:23:46;99844.44;;;6.79
12430;BMP280;6279;42.192;24.326;2023-03-01T01:26:26;99843.25;;;6.83
12430;BMP280;6279;42.192;24.326;2023-03-01T01:28:53;99830.78;;;6.78
12430;BMP280;6279;42.192;24.326;2023-03-01T01:31:19;99835.66;;;6.71
12430;BMP280;6279;42.192;24.326;2023-03-01T01:33:46;99837.78;;;6.66
12430;BMP280;6279;42.192;24.326;2023-03-01T01:36:11;99846.72;;;6.62
12430;BMP280;6279;42.192;24.326;2023-03-01T01:38:37;99846.34;;;6.67
12430;BMP280;6279;42.192;24.326;2023-03-01T01:41:04;99850.13;;;6.63
12430;BMP280;6279;42.192;24.326;2023-03-01T01:43:35;99843.22;;;6.63
12430;BMP280;6279;42.192;24.326;2023-03-01T01:46:16;99834.94;;;6.69
12430;BMP280;6279;42.192;24.326;2023-03-01T01:49:04;99835.78;;;6.59
12430;BMP280;6279;42.192;24.326;2023-03-01T01:51:37;99840.16;;;6.58
12430;BMP280;6279;42.192;24.326;2023-03-01T01:54:09;99845.56;;;6.56
12430;BMP280;6279;42.192;24.326;2023-03-01T01:56:36;99840.91;;;6.50
12430;BMP280;6279;42.192;24.326;2023-03-01T01:59:02;99832.19;;;6.51
12430;BMP280;6279;42.192;24.326;2023-03-01T02:01:28;99839.38;;;6.47
12430;BMP280;6279;42.192;24.326;2023-03-01T02:03:53;99824.69;;;6.48
12430;BMP280;6279;42.192;24.326;2023-03-01T02:06:26;99824.44;;;6.51
12430;BMP280;6279;42.192;24.326;2023-03-01T02:09:00;99829.75;;;6.49
12430;BMP280;6279;42.192;24.326;2023-03-01T02:11:30;99824.19;;;6.54
12430;BMP280;6279;42.192;24.326;2023-03-01T02:13:56;99825.47;;;6.59
12430;BMP280;6279;42.192;24.326;2023-03-01T02:16:21;99825.25;;;6.62
12430;BMP280;6279;42.192;24.326;2023-03-01T02:18:47;99823.91;;;6.67
12430;BMP280;6279;42.192;24.326;2023-03-01T02:24:35;99821.72;;;6.63
12430;BMP280;6279;42.192;24.326;2023-03-01T02:27:03;99820.91;;;6.62
12430;BMP280;6279;42.192;24.326;2023-03-01T02:29:29;99827.69;;;6.63
12430;BMP280;6279;42.192;24.326;2023-03-01T02:31:56;99822.06;;;6.58
12430;BMP280;6279;42.192;24.326;2023-03-01T02:34:24;99823.25;;;6.55
12430;BMP280;6279;42.192;24.326;2023-03-01T02:37:13;99823.69;;;6.59
12430;BMP280;6279;42.192;24.326;2023-03-01T02:39:42;99820.16;;;6.60
12430;BMP280;6279;42.192;24.326;2023-03-01T02:42:11;99821.94;;;6.60
12430;BMP280;6279;42.192;24.326;2023-03-01T02:44:37;99811.59;;;6.60
12430;BMP280;6279;42.192;24.326;2023-03-01T02:47:04;99816.44;;;6.54
12430;BMP280;6279;42.192;24.326;2023-03-01T02:49:35;99819.47;;;6.58
12430;BMP280;6279;42.192;24.326;2023-03-01T02:54:52;99810.56;;;6.62
12430;BMP280;6279;42.192;24.326;2023-03-01T02:57:22;99814.06;;;6.61
12430;BMP280;6279;42.192;24.326;2023-03-01T02:59:49;99798.53;;;6.61
12430;BMP280;6279;42.192;24.326;2023-03-01T03:02:20;99821.38;;;6.56
12430;BMP280;6279;42.192;24.326;2023-03-01T03:05:17;99814.81;;;6.53
12430;BMP280;6279;42.192;24.326;2023-03-01T03:07:45;99822.69;;;6.51
12430;BMP280;6279;42.192;24.326;2023-03-01T03:10:22;99811.41;;;6.52
12430;BMP280;6279;42.192;24.326;2023-03-01T03:12:53;99812.59;;;6.48
12430;BMP280;6279;42.192;24.326;2023-03-01T03:15:19;99813.44;;;6.38
12430;BMP280;6279;42.192;24.326;2023-03-01T03:17:46;99817.41;;;6.42
12430;BMP280;6279;42.192;24.326;2023-03-01T03:20:13;99804.84;;;6.48
12430;BMP280;6279;42.192;24.326;2023-03-01T03:22:47;99817.63;;;6.50
12430;BMP280;6279;42.192;24.326;2023-03-01T03:25:13;99818.59;;;6.49
12430;BMP280;6279;42.192;24.326;2023-03-01T03:27:40;99816.81;;;6.49
12430;BMP280;6279;42.192;24.326;2023-03-01T03:30:10;99806.81;;;6.56
12430;BMP280;6279;42.192;24.326;2023-03-01T03:32:38;99811.97;;;6.56
12430;BMP280;6279;42.192;24.326;2023-03-01T03:35:04;99812.66;;;6.57
12430;BMP280;6279;42.192;24.326;2023-03-01T03:37:40;99808.78;;;6.63
12430;BMP280;6279;42.192;24.326;2023-03-01T03:40:25;99816.19;;;6.56
12430;BMP280;6279;42.192;24.326;2023-03-01T03:42:50;99804.34;;;6.54
12430;BMP280;6279;42.192;24.326;2023-03-01T03:45:17;99808.81;;;6.52
12430;BMP280;6279;42.192;24.326;2023-03-01T03:47:43;99809.75;;;6.51
12430;BMP280;6279;42.192;24.326;2023-03-01T03:50:10;99810.47;;;6.53
12430;BMP280;6279;42.192;24.326;2023-03-01T03:52:36;99809.31;;;6.46
12430;BMP280;6279;42.192;24.326;2023-03-01T03:55:01;99810.38;;;6.44
12430;BMP280;6279;42.192;24.326;2023-03-01T03:57:27;99812.75;;;6.36
12430;BMP280;6279;42.192;24.326;2023-03-01T03:59:52;99812.03;;;6.45
12430;BMP280;6279;42.192;24.326;2023-03-01T04:02:17;99813.41;;;6.49
12430;BMP280;6279;42.192;24.326;2023-03-01T04:04:48;99812.22;;;6.53
12430;BMP280;6279;42.192;24.326;2023-03-01T04:07:15;99821.88;;;6.51
12430;BMP280;6279;42.192;24.326;2023-03-01T04:09:42;99833.28;;;6.48
12430;BMP280;6279;42.192;24.326;2023-03-01T04:12:08;99826.22;;;6.50
12430;BMP280;6279;42.192;24.326;2023-03-01T04:14:34;99826.09;;;6.52
12430;BMP280;6279;42.192;24.326;2023-03-01T04:16:59;99826.91;;;6.52
12430;BMP280;6279;42.192;24.326;2023-03-01T04:19:27;99818.09;;;6.55
12430;BMP280;6279;42.192;24.326;2023-03-01T04:21:53;99815.50;;;6.55
12430;BMP280;6279;42.192;24.326;2023-03-01T04:24:18;99820.91;;;6.52
12430;BMP280;6279;42.192;24.326;2023-03-01T04:26:44;99820.22;;;6.50
12430;BMP280;6279;42.192;24.326;2023-03-01T04:29:09;99827.72;;;6.53
12430;BMP280;6279;42.192;24.326;2023-03-01T04:31:35;99818.34;;;6.52
12430;BMP280;6279;42.192;24.326;2023-03-01T04:34:01;99823.19;;;6.45
12430;BMP280;6279;42.192;24.326;2023-03-01T04:36:28;99825.41;;;6.50
12430;BMP280;6279;42.192;24.326;2023-03-01T04:38:54;99833.28;;;6.48
12430;BMP280;6279;42.192;24.326;2023-03-01T04:41:22;99823.38;;;6.53
12430;BMP280;6279;42.192;24.326;2023-03-01T04:43:47;99829.63;;;6.51
12430;BMP280;6279;42.192;24.326;2023-03-01T04:46:16;99820.41;;;6.57
12430;BMP280;6279;42.192;24.326;2023-03-01T04:48:43;99831.00;;;6.55
12430;BMP280;6279;42.192;24.326;2023-03-01T04:51:09;99822.75;;;6.60
12430;BMP280;6279;42.192;24.326;2023-03-01T04:53:38;99815.94;;;6.59
12430;BMP280;6279;42.192;24.326;2023-03-01T04:56:04;99822.75;;;6.60
12430;BMP280;6279;42.192;24.326;2023-03-01T04:58:30;99815.59;;;6.64
12430;BMP280;6279;42.192;24.326;2023-03-01T05:00:55;99817.59;;;6.60
12430;BMP280;6279;42.192;24.326;2023-03-01T05:03:21;99814.06;;;6.61
12430;BMP280;6279;42.192;24.326;2023-03-01T05:05:48;99808.06;;;6.61
12430;BMP280;6279;42.192;24.326;2023-03-01T05:08:14;99814.78;;;6.63
12430;BMP280;6279;42.192;24.326;2023-03-01T05:10:44;99804.06;;;6.68
12430;BMP280;6279;42.192;24.326;2023-03-01T05:13:11;99818.13;;;6.75
12430;BMP280;6279;42.192;24.326;2023-03-01T05:15:39;99818.94;;;6.75
12430;BMP280;6279;42.192;24.326;2023-03-01T05:18:04;99826.25;;;6.70
12430;BMP280;6279;42.192;24.326;2023-03-01T05:20:37;99822.59;;;6.73
12430;BMP280;6279;42.192;24.326;2023-03-01T05:23:03;99824.44;;;6.81
12430;BMP280;6279;42.192;24.326;2023-03-01T05:25:31;99829.50;;;6.83
12430;BMP280;6279;42.192;24.326;2023-03-01T05:27:59;99833.91;;;6.92
12430;BMP280;6279;42.192;24.326;2023-03-01T05:30:28;99833.22;;;6.90
12430;BMP280;6279;42.192;24.326;2023-03-01T05:32:53;99828.03;;;6.90
12430;BMP280;6279;42.192;24.326;2023-03-01T05:35:21;99835.78;;;6.90
12430;BMP280;6279;42.192;24.326;2023-03-01T05:37:48;99838.00;;;6.94
12430;BMP280;6279;42.192;24.326;2023-03-01T05:40:21;99842.09;;;6.97
12430;BMP280;6279;42.192;24.326;2023-03-01T05:42:56;99836.00;;;6.98
12430;BMP280;6279;42.192;24.326;2023-03-01T05:45:23;99843.25;;;7.03
12430;BMP280;6279;42.192;24.326;2023-03-01T05:47:50;99844.63;;;7.07
12430;BMP280;6279;42.192;24.326;2023-03-01T05:50:22;99843.09;;;7.16
12430;BMP280;6279;42.192;24.326;2023-03-01T05:53:12;99845.75;;;7.14
12430;BMP280;6279;42.192;24.326;2023-03-01T05:55:38;99844.38;;;7.10
12430;BMP280;6279;42.192;24.326;2023-03-01T05:58:06;99845.34;;;7.09
12430;BMP280;6279;42.192;24.326;2023-03-01T06:00:32;99848.19;;;7.06
12430;BMP280;6279;42.192;24.326;2023-03-01T06:02:59;99847.91;;;7.09
12430;BMP280;6279;42.192;24.326;2023-03-01T06:05:25;99854.22;;;6.96
12430;BMP280;6279;42.192;24.326;2023-03-01T06:07:51;99857.63;;;6.97
12430;BMP280;6279;42.192;24.326;2023-03-01T06:10:17;99851.97;;;7.02
12430;BMP280;6279;42.192;24.326;2023-03-01T06:12:43;99854.53;;;7.02
12430;BMP280;6279;42.192;24.326;2023-03-01T06:15:11;99853.59;;;7.03
12430;BMP280;6279;42.192;24.326;2023-03-01T06:17:38;99859.16;;;6.99
12430;BMP280;6279;42.192;24.326;2023-03-01T06:20:10;99858.78;;;7.03
12430;BMP280;6279;42.192;24.326;2023-03-01T06:22:35;99864.81;;;6.93
12430;BMP280;6279;42.192;24.326;2023-03-01T06:25:01;99859.75;;;6.92
12430;BMP280;6279;42.192;24.326;2023-03-01T06:27:27;99859.75;;;6.92
12430;BMP280;6279;42.192;24.326;2023-03-01T06:29:52;99869.84;;;6.95
12430;BMP280;6279;42.192;24.326;2023-03-01T06:32:17;99863.03;;;6.94
12430;BMP280;6279;42.192;24.326;2023-03-01T06:34:43;99866.31;;;6.96
12430;BMP280;6279;42.192;24.326;2023-03-01T06:37:09;99875.63;;;6.98
12430;BMP280;6279;42.192;24.326;2023-03-01T06:39:34;99874.41;;;7.02
12430;BMP280;6279;42.192;24.326;2023-03-01T06:42:00;99871.84;;;7.02
12430;BMP280;6279;42.192;24.326;2023-03-01T06:44:26;99873.47;;;7.03
12430;BMP280;6279;42.192;24.326;2023-03-01T06:46:51;99880.41;;;7.02
12430;BMP280;6279;42.192;24.326;2023-03-01T06:49:17;99878.56;;;6.94
12430;BMP280;6279;42.192;24.326;2023-03-01T06:51:44;99869.63;;;6.98
12430;BMP280;6279;42.192;24.326;2023-03-01T06:54:10;99873.72;;;7.00
12430;BMP280;6279;42.192;24.326;2023-03-01T06:56:35;99869.84;;;6.95
12430;BMP280;6279;42.192;24.326;2023-03-01T06:59:01;99867.22;;;7.05
12430;BMP280;6279;42.192;24.326;2023-03-01T07:01:28;99879.78;;;7.10
12430;BMP280;6279;42.192;24.326;2023-03-01T07:03:53;99870.72;;;7.15
12430;BMP280;6279;42.192;24.326;2023-03-01T07:06:19;99874.34;;;7.13
12430;BMP280;6279;42.192;24.326;2023-03-01T07:08:45;99875.03;;;7.15
12430;BMP280;6279;42.192;24.326;2023-03-01T07:11:11;99877.41;;;7.18
12430;BMP280;6279;42.192;24.326;2023-03-01T07:13:37;99871.47;;;7.26
12430;BMP280;6279;42.192;24.326;2023-03-01T07:16:02;99870.91;;;7.23
12430;BMP280;6279;42.192;24.326;2023-03-01T07:18:27;99866.59;;;7.13
12430;BMP280;6279;42.192;24.326;2023-03-01T07:20:53;99876.19;;;7.01
12430;BMP280;6279;42.192;24.326;2023-03-01T07:23:18;99873.13;;;6.97
12430;BMP280;6279;42.192;24.326;2023-03-01T07:25:44;99871.97;;;7.00
12430;BMP280;6279;42.192;24.326;2023-03-01T07:28:09;99870.50;;;7.07
12430;BMP280;6279;42.192;24.326;2023-03-01T07:30:34;99878.78;;;7.01
12430;BMP280;6279;42.192;24.326;2023-03-01T07:33:00;99876.88;;;7.03
12430;BMP280;6279;42.192;24.326;2023-03-01T07:35:26;99869.81;;;7.05
12430;BMP280;6279;42.192;24.326;2023-03-01T07:37:52;99862.44;;;7.21
12430;BMP280;6279;42.192;24.326;2023-03-01T07:40:18;99863.13;;;7.23
12430;BMP280;6279;42.192;24.326;2023-03-01T07:42:43;99865.47;;;7.26
12430;BMP280;6279;42.192;24.326;2023-03-01T07:45:09;99861.66;;;7.30
12430;BMP280;6279;42.192;24.326;2023-03-01T07:47:35;99876.59;;;7.17
12430;BMP280;6279;42.192;24.326;2023-03-01T07:50:01;99860.94;;;7.39
12430;BMP280;6279;42.192;24.326;2023-03-01T07:52:28;99855.56;;;7.51
12430;BMP280;6279;42.192;24.326;2023-03-01T07:54:53;99856.28;;;7.62
12430;BMP280;6279;42.192;24.326;2023-03-01T07:57:19;99848.44;;;7.73
12430;BMP280;6279;42.192;24.326;2023-03-01T07:59:44;99855.56;;;7.80
12430;BMP280;6279;42.192;24.326;2023-03-01T08:02:10;99843.69;;;7.78
12430;BMP280;6279;42.192;24.326;2023-03-01T08:04:36;99849.16;;;7.84
12430;BMP280;6279;42.192;24.326;2023-03-01T08:07:04;99844.38;;;7.80
12430;BMP280;6279;42.192;24.326;2023-03-01T08:09:30;99843.44;;;7.81
12430;BMP280;6279;42.192;24.326;2023-03-01T08:11:56;99860.13;;;7.67
12430;BMP280;6279;42.192;24.326;2023-03-01T08:14:22;99859.66;;;7.53
12430;BMP280;6279;42.192;24.326;2023-03-01T08:16:49;99855.16;;;7.55
12430;BMP280;6279;42.192;24.326;2023-03-01T08:19:14;99848.69;;;7.41
12430;BMP280;6279;42.192;24.326;2023-03-01T08:21:40;99848.13;;;7.37
12430;BMP280;6279;42.192;24.326;2023-03-01T08:24:06;99847.16;;;7.38
12430;BMP280;6279;42.192;24.326;2023-03-01T08:26:32;99851.06;;;7.33
12430;BMP280;6279;42.192;24.326;2023-03-01T08:29:00;99848.81;;;7.39
12430;BMP280;6279;42.192;24.326;2023-03-01T08:31:38;99846.13;;;7.50
12430;BMP280;6279;42.192;24.326;2023-03-01T08:34:09;99851.75;;;7.55
12430;BMP280;6279;42.192;24.326;2023-03-01T08:36:38;99845.25;;;7.60
12430;BMP280;6279;42.192;24.326;2023-03-01T08:39:05;99840.50;;;7.65
12430;BMP280;6279;42.192;24.326;2023-03-01T08:41:31;99840.94;;;7.70
12430;BMP280;6279;42.192;24.326;2023-03-01T08:43:57;99838.25;;;7.81
12430;BMP280;6279;42.192;24.326;2023-03-01T08:46:33;99841.97;;;7.88
12430;BMP280;6279;42.192;24.326;2023-03-01T08:48:59;99844.84;;;7.94
12430;BMP280;6279;42.192;24.326;2023-03-01T08:51:26;99843.28;;;7.73
12430;BMP280;6279;42.192;24.326;2023-03-01T08:53:51;99843.28;;;7.82
12430;BMP280;6279;42.192;24.326;2023-03-01T08:56:18;99837.34;;;7.91
12430;BMP280;6279;42.192;24.326;2023-03-01T08:58:45;99830.19;;;8.04
12430;BMP280;6279;42.192;24.326;2023-03-01T09:01:12;99837.59;;;8.17
12430;BMP280;6279;42.192;24.326;2023-03-01T09:03:38;99835.72;;;8.29
12430;BMP280;6279;42.192;24.326;2023-03-01T09:06:05;99839.22;;;8.18
12430;BMP280;6279;42.192;24.326;2023-03-01T09:08:31;99836.09;;;8.15
12430;BMP280;6279;42.192;24.326;2023-03-01T09:11:01;99835.94;;;8.16
12430;BMP280;6279;42.192;24.326;2023-03-01T09:13:27;99849.25;;;8.03
12430;BMP280;6279;42.192;24.326;2023-03-01T09:15:56;99837.84;;;8.05
12430;BMP280;6279;42.192;24.326;2023-03-01T09:18:21;99836.91;;;8.15
12430;BMP280;6279;42.192;24.326;2023-03-01T09:20:47;99840.31;;;8.07
12430;BMP280;6279;42.192;24.326;2023-03-01T09:23:12;99840.66;;;8.02
12430;BMP280;6279;42.192;24.326;2023-03-01T09:25:37;99839.75;;;8.12
12430;BMP280;6279;42.192;24.326;2023-03-01T09:28:03;99830.50;;;8.19
12430;BMP280;6279;42.192;24.326;2023-03-01T09:30:28;99838.94;;;8.21
12430;BMP280;6279;42.192;24.326;2023-03-01T09:32:56;99838.09;;;8.02
12430;BMP280;6279;42.192;24.326;2023-03-01T09:35:21;99839.66;;;7.94
12430;BMP280;6279;42.192;24.326;2023-03-01T09:37:47;99828.75;;;7.90
12430;BMP280;6279;42.192;24.326;2023-03-01T09:40:18;99829.53;;;7.82
12430;BMP280;6279;42.192;24.326;2023-03-01T09:43:02;99828.56;;;7.83
12430;BMP280;6279;42.192;24.326;2023-03-01T09:45:38;99828.72;;;7.81
12430;BMP280;6279;42.192;24.326;2023-03-01T09:48:06;99818.81;;;7.95
12430;BMP280;6279;42.192;24.326;2023-03-01T09:50:39;99817.34;;;8.02
12430;BMP280;6279;42.192;24.326;2023-03-01T09:53:13;99819.56;;;8.07
12430;BMP280;6279;42.192;24.326;2023-03-01T09:55:44;99809.91;;;8.09
12430;BMP280;6279;42.192;24.326;2023-03-01T10:01:00;99806.78;;;8.14
12430;BMP280;6279;42.192;24.326;2023-03-01T10:06:21;99795.50;;;8.53
12430;BMP280;6279;42.192;24.326;2023-03-01T10:09:13;99793.72;;;8.53
12430;BMP280;6279;42.192;24.326;2023-03-01T10:11:43;99795.91;;;8.48
12430;BMP280;6279;42.192;24.326;2023-03-01T10:19:22;99800.00;;;8.41
12430;BMP280;6279;42.192;24.326;2023-03-01T10:21:49;99798.50;;;8.48
12430;BMP280;6279;42.192;24.326;2023-03-01T10:24:17;99794.56;;;8.63
12430;BMP280;6279;42.192;24.326;2023-03-01T10:26:54;99797.00;;;8.64
12430;BMP280;6279;42.192;24.326;2023-03-01T10:29:28;99794.03;;;8.59
12430;BMP280;6279;42.192;24.326;2023-03-01T10:31:55;99800.56;;;8.63
12430;BMP280;6279;42.192;24.326;2023-03-01T10:34:30;99795.91;;;8.48
12430;BMP280;6279;42.192;24.326;2023-03-01T10:37:01;99787.31;;;8.48
12430;BMP280;6279;42.192;24.326;2023-03-01T10:39:26;99782.00;;;8.49
12430;BMP280;6279;42.192;24.326;2023-03-01T10:42:00;99781.31;;;8.47
12430;BMP280;6279;42.192;24.326;2023-03-01T10:44:47;99775.19;;;8.48
12430;BMP280;6279;42.192;24.326;2023-03-01T10:49:52;99780.47;;;8.37
12430;BMP280;6279;42.192;24.326;2023-03-01T10:52:21;99779.78;;;8.35
12430;BMP280;6279;42.192;24.326;2023-03-01T10:55:24;99775.56;;;8.53
12430;BMP280;6279;42.192;24.326;2023-03-01T11:00:46;99761.13;;;8.51
12430;BMP280;6279;42.192;24.326;2023-03-01T11:03:14;99752.25;;;8.53
12430;BMP280;6279;42.192;24.326;2023-03-01T11:05:56;99747.63;;;8.66
12430;BMP280;6279;42.192;24.326;2023-03-01T11:08:41;99742.16;;;8.78
12430;BMP280;6279;42.192;24.326;2023-03-01T11:11:29;99737.22;;;8.75
12430;BMP280;6279;42.192;24.326;2023-03-01T11:14:26;99724.50;;;8.91
12430;BMP280;6279;42.192;24.326;2023-03-01T11:17:11;99728.47;;;8.85
12430;BMP280;6279;42.192;24.326;2023-03-01T11:19:37;99717.31;;;8.57
12430;BMP280;6279;42.192;24.326;2023-03-01T11:22:07;99720.75;;;8.48
12430;BMP280;6279;42.192;24.326;2023-03-01T11:24:53;99716.22;;;8.69
12430;BMP280;6279;42.192;24.326;2023-03-01T11:27:28;99703.59;;;8.92
12430;BMP280;6279;42.192;24.326;2023-03-01T11:30:04;99715.41;;;8.77
12430;BMP280;6279;42.192;24.326;2023-03-01T11:32:43;99705.94;;;8.95
12430;BMP280;6279;42.192;24.326;2023-03-01T11:35:18;99709.22;;;8.97
12430;BMP280;6279;42.192;24.326;2023-03-01T11:40:47;99696.94;;;9.25
12430;BMP280;6279;42.192;24.326;2023-03-01T11:57:15;99685.44;;;9.37
12430;BMP280;6279;42.192;24.326;2023-03-01T12:08:09;99681.22;;;9.00
12430;BMP280;6279;42.192;24.326;2023-03-01T12:33:09;99671.56;;;9.19
12430;BMP280;6279;42.192;24.326;2023-03-01T12:49:17;99669.44;;;9.06
12430;BMP280;6279;42.192;24.326;2023-03-01T12:52:12;99663.88;;;9.01
12430;BMP280;6279;42.192;24.326;2023-03-01T12:54:36;99673.28;;;9.02
12430;BMP280;6279;42.192;24.326;2023-03-01T12:57:16;99663.44;;;9.05
12430;BMP280;6279;42.192;24.326;2023-03-01T13:02:39;99646.72;;;9.17
12430;BMP280;6279;42.192;24.326;2023-03-01T13:07:51;99657.72;;;9.02
12430;BMP280;6279;42.192;24.326;2023-03-01T13:15:34;99657.63;;;9.47
12430;BMP280;6279;42.192;24.326;2023-03-01T13:20:45;99648.16;;;9.99
12430;BMP280;6279;42.192;24.326;2023-03-01T13:26:01;99649.06;;;9.90
12430;BMP280;6279;42.192;24.326;2023-03-01T13:33:52;99658.88;;;9.43
12430;BMP280;6279;42.192;24.326;2023-03-01T13:39:03;99657.94;;;9.70
12430;BMP280;6279;42.192;24.326;2023-03-01T13:44:36;99637.34;;;9.86
12430;BMP280;6279;42.192;24.326;2023-03-01T13:47:15;99643.31;;;9.69
12430;BMP280;6279;42.192;24.326;2023-03-01T13:49:46;99642.34;;;9.70
12430;BMP280;6279;42.192;24.326;2023-03-01T13:52:43;99649.16;;;9.71
12430;BMP280;6279;42.192;24.326;2023-03-01T13:55:40;99649.38;;;9.78
12430;BMP280;6279;42.192;24.326;2023-03-01T13:58:20;99646.94;;;9.86
12430;BMP280;6279;42.192;24.326;2023-03-01T14:00:46;99648.00;;;9.83
12430;BMP280;6279;42.192;24.326;2023-03-01T14:03:19;99645.69;;;9.80
12430;BMP280;6279;42.192;24.326;2023-03-01T14:06:05;99653.59;;;9.62
12430;BMP280;6279;42.192;24.326;2023-03-01T14:08:33;99650.53;;;9.49
12430;BMP280;6279;42.192;24.326;2023-03-01T14:19:32;99645.72;;;9.54
12430;BMP280;6279;42.192;24.326;2023-03-01T14:22:18;99649.84;;;9.47
12430;BMP280;6279;42.192;24.326;2023-03-01T14:24:55;99644.94;;;9.44
12430;BMP280;6279;42.192;24.326;2023-03-01T14:27:21;99653.38;;;9.55
12430;BMP280;6279;42.192;24.326;2023-03-01T14:29:57;99650.94;;;9.44
12430;BMP280;6279;42.192;24.326;2023-03-01T14:32:30;99654.56;;;9.34
12430;BMP280;6279;42.192;24.326;2023-03-01T14:35:01;99658.81;;;9.35
12430;BMP280;6279;42.192;24.326;2023-03-01T14:37:34;99648.16;;;9.29
12430;BMP280;6279;42.192;24.326;2023-03-01T14:40:02;99651.72;;;9.28
12430;BMP280;6279;42.192;24.326;2023-03-01T14:42:31;99647.09;;;9.31
12430;BMP280;6279;42.192;24.326;2023-03-01T14:45:00;99650.91;;;9.27
12430;BMP280;6279;42.192;24.326;2023-03-01T14:47:29;99656.72;;;9.39
12430;BMP280;6279;42.192;24.326;2023-03-01T14:52:44;99661.03;;;9.47
12430;BMP280;6279;42.192;24.326;2023-03-01T14:55:17;99654.09;;;9.48
12430;BMP280;6279;42.192;24.326;2023-03-01T14:57:45;99661.75;;;9.49
12430;BMP280;6279;42.192;24.326;2023-03-01T15:00:18;99660.41;;;9.63
12430;BMP280;6279;42.192;24.326;2023-03-01T15:02:47;99657.50;;;9.48
12430;BMP280;6279;42.192;24.326;2023-03-01T15:05:14;99662.28;;;9.53
12430;BMP280;6279;42.192;24.326;2023-03-01T15:07:42;99665.41;;;9.47
12430;BMP280;6279;42.192;24.326;2023-03-01T15:10:22;99665.84;;;9.42
12430;BMP280;6279;42.192;24.326;2023-03-01T15:12:48;99662.31;;;9.43
12430;BMP280;6279;42.192;24.326;2023-03-01T15:17:59;99670.69;;;9.28
12430;BMP280;6279;42.192;24.326;2023-03-01T15:20:27;99663.31;;;9.33
12430;BMP280;6279;42.192;24.326;2023-03-01T15:22:55;99661.84;;;9.31
12430;BMP280;6279;42.192;24.326;2023-03-01T15:25:25;99668.47;;;9.16
12430;BMP280;6279;42.192;24.326;2023-03-01T15:27:52;99663.97;;;9.09
12430;BMP280;6279;42.192;24.326;2023-03-01T15:30:23;99658.38;;;9.04
12430;BMP280;6279;42.192;24.326;2023-03-01T15:33:16;99669.44;;;9.06
12430;BMP280;6279;42.192;24.326;2023-03-01T15:35:49;99663.72;;;9.02
12430;BMP280;6279;42.192;24.326;2023-03-01T15:38:35;99664.81;;;9.00
12430;BMP280;6279;42.192;24.326;2023-03-01T15:41:05;99659.25;;;8.95
12430;BMP280;6279;42.192;24.326;2023-03-01T15:43:46;99657.88;;;8.91
12430;BMP280;6279;42.192;24.326;2023-03-01T15:46:33;99656.00;;;8.84
12430;BMP280;6279;42.192;24.326;2023-03-01T15:49:01;99655.31;;;8.82
12430;BMP280;6279;42.192;24.326;2023-03-01T15:51:36;99647.28;;;8.75
12430;BMP280;6279;42.192;24.326;2023-03-01T15:54:23;99651.78;;;8.74
12430;BMP280;6279;42.192;24.326;2023-03-01T15:56:50;99647.97;;;8.77
12430;BMP280;6279;42.192;24.326;2023-03-01T15:59:16;99652.50;;;8.66
12430;BMP280;6279;42.192;24.326;2023-03-01T16:01:42;99655.66;;;8.60
12430;BMP280;6279;42.192;24.326;2023-03-01T16:04:17;99653.69;;;8.72
12430;BMP280;6279;42.192;24.326;2023-03-01T16:06:53;99654.28;;;8.66
12430;BMP280;6279;42.192;24.326;2023-03-01T16:09:23;99647.72;;;8.62
12430;BMP280;6279;42.192;24.326;2023-03-01T16:11:49;99650.47;;;8.60
12430;BMP280;6279;42.192;24.326;2023-03-01T16:14:14;99653.22;;;8.59
12430;BMP280;6279;42.192;24.326;2023-03-01T16:16:42;99657.44;;;8.60
12430;BMP280;6279;42.192;24.326;2023-03-01T16:19:07;99654.28;;;8.56
12430;BMP280;6279;42.192;24.326;2023-03-01T16:21:33;99657.44;;;8.60
12430;BMP280;6279;42.192;24.326;2023-03-01T16:23:58;99661.91;;;8.58
12430;BMP280;6279;42.192;24.326;2023-03-01T16:26:26;99659.75;;;8.53
12430;BMP280;6279;42.192;24.326;2023-03-01T16:28:55;99668.88;;;8.39
12430;BMP280;6279;42.192;24.326;2023-03-01T16:31:24;99673.41;;;8.37
12430;BMP280;6279;42.192;24.326;2023-03-01T16:33:53;99679.53;;;8.36
12430;BMP280;6279;42.192;24.326;2023-03-01T16:36:20;99675.47;;;8.43
12430;BMP280;6279;42.192;24.326;2023-03-01T16:38:48;99671.22;;;8.51